sensor_id;sensor_type;location;lat;lon;timestamp;temperature;humidity
65207;SHT31;58477;48.072;11.970;2022-12-10T00:02:25;0.47;95.23
65207;SHT31;58477;48.072;11.970;2022-12-10T00:04:51;0.38;95.09
65207;SHT31;58477;48.072;11.970;2022-12-10T00:07:16;-0.03;95.94
65207;SHT31;58477;48.072;11.970;2022-12-10T00:09:42;0.03;96.47
65207;SHT31;58477;48.072;11.970;2022-12-10T00:12:07;0.01;96.60
65207;SHT31;58477;48.072;11.970;2022-12-10T00:14:33;0.18;96.69
65207;SHT31;58477;48.072;11.970;2022-12-10T00:16:58;0.35;95.94
65207;SHT31;58477;48.072;11.970;2022-12-10T00:19:23;0.48;95.58
65207;SHT31;58477;48.072;11.970;2022-12-10T00:21:49;0.49;95.36
65207;SHT31;58477;48.072;11.970;2022-12-10T00:24:14;0.54;95.12
65207;SHT31;58477;48.072;11.970;2022-12-10T00:26:40;0.55;94.94
65207;SHT31;58477;48.072;11.970;2022-12-10T00:29:07;0.47;94.71
65207;SHT31;58477;48.072;11.970;2022-12-10T00:31:35;0.22;94.88
65207;SHT31;58477;48.072;11.970;2022-12-10T00:34:04;0.28;95.61
65207;SHT31;58477;48.072;11.970;2022-12-10T00:36:36;0.38;95.54
65207;SHT31;58477;48.072;11.970;2022-12-10T00:39:03;0.35;95.40
65207;SHT31;58477;48.072;11.970;2022-12-10T00:41:29;0.37;95.08
65207;SHT31;58477;48.072;11.970;2022-12-10T00:43:55;0.10;96.13
65207;SHT31;58477;48.072;11.970;2022-12-10T00:46:20;0.01;96.71
65207;SHT31;58477;48.072;11.970;2022-12-10T00:48:46;-0.17;97.21
65207;SHT31;58477;48.072;11.970;2022-12-10T00:51:18;-0.16;97.63
65207;SHT31;58477;48.072;11.970;2022-12-10T00:53:45;-0.06;97.26
65207;SHT31;58477;48.072;11.970;2022-12-10T00:56:13;-0.09;97.31
65207;SHT31;58477;48.072;11.970;2022-12-10T00:58:40;-0.09;97.74
65207;SHT31;58477;48.072;11.970;2022-12-10T01:01:11;-0.07;97.93
65207;SHT31;58477;48.072;11.970;2022-12-10T01:03:38;-0.19;98.11
65207;SHT31;58477;48.072;11.970;2022-12-10T01:06:12;-0.20;98.41
65207;SHT31;58477;48.072;11.970;2022-12-10T01:08:38;-0.17;98.60
65207;SHT31;58477;48.072;11.970;2022-12-10T01:11:05;-0.17;98.61
65207;SHT31;58477;48.072;11.970;2022-12-10T01:13:31;0.11;98.41
65207;SHT31;58477;48.072;11.970;2022-12-10T01:15:56;-0.02;98.13
65207;SHT31;58477;48.072;11.970;2022-12-10T01:18:23;-0.06;98.41
65207;SHT31;58477;48.072;11.970;2022-12-10T01:20:48;-0.06;98.41
65207;SHT31;58477;48.072;11.970;2022-12-10T01:23:14;0.08;98.47
65207;SHT31;58477;48.072;11.970;2022-12-10T01:25:39;0.24;98.25
65207;SHT31;58477;48.072;11.970;2022-12-10T01:28:06;0.17;97.03
65207;SHT31;58477;48.072;11.970;2022-12-10T01:30:32;0.15;97.65
65207;SHT31;58477;48.072;11.970;2022-12-10T01:32:57;-0.02;98.16
65207;SHT31;58477;48.072;11.970;2022-12-10T01:35:22;0.00;98.39
65207;SHT31;58477;48.072;11.970;2022-12-10T01:37:49;0.07;98.24
65207;SHT31;58477;48.072;11.970;2022-12-10T01:40:14;0.01;98.00
65207;SHT31;58477;48.072;11.970;2022-12-10T01:42:40;0.08;97.88
65207;SHT31;58477;48.072;11.970;2022-12-10T01:45:09;0.07;98.37
65207;SHT31;58477;48.072;11.970;2022-12-10T01:47:35;0.22;97.74
65207;SHT31;58477;48.072;11.970;2022-12-10T01:50:04;0.05;97.66
65207;SHT31;58477;48.072;11.970;2022-12-10T01:52:30;0.05;97.95
65207;SHT31;58477;48.072;11.970;2022-12-10T01:54:56;-0.02;98.02
65207;SHT31;58477;48.072;11.970;2022-12-10T01:57:25;0.04;98.38
65207;SHT31;58477;48.072;11.970;2022-12-10T01:59:55;0.15;97.59
65207;SHT31;58477;48.072;11.970;2022-12-10T02:07:57;-0.03;98.34
65207;SHT31;58477;48.072;11.970;2022-12-10T02:13:30;0.32;97.19
65207;SHT31;58477;48.072;11.970;2022-12-10T02:16:06;0.48;96.57
65207;SHT31;58477;48.072;11.970;2022-12-10T02:21:03;0.42;95.75
65207;SHT31;58477;48.072;11.970;2022-12-10T02:23:36;0.37;96.07
65207;SHT31;58477;48.072;11.970;2022-12-10T02:26:19;0.38;95.65
65207;SHT31;58477;48.072;11.970;2022-12-10T02:29:12;0.49;95.78
65207;SHT31;58477;48.072;11.970;2022-12-10T02:31:55;0.41;95.54
65207;SHT31;58477;48.072;11.970;2022-12-10T02:34:24;0.25;95.93
65207;SHT31;58477;48.072;11.970;2022-12-10T02:36:53;0.22;96.16
65207;SHT31;58477;48.072;11.970;2022-12-10T02:39:25;0.35;96.08
65207;SHT31;58477;48.072;11.970;2022-12-10T02:41:56;0.32;95.34
65207;SHT31;58477;48.072;11.970;2022-12-10T02:44:24;0.13;96.10
65207;SHT31;58477;48.072;11.970;2022-12-10T02:46:54;0.04;96.96
65207;SHT31;58477;48.072;11.970;2022-12-10T02:49:23;-0.05;97.02
65207;SHT31;58477;48.072;11.970;2022-12-10T02:51:49;0.08;96.83
65207;SHT31;58477;48.072;11.970;2022-12-10T02:54:38;0.00;97.21
65207;SHT31;58477;48.072;11.970;2022-12-10T03:05:38;-0.11;97.25
65207;SHT31;58477;48.072;11.970;2022-12-10T03:13:11;0.13;97.21
65207;SHT31;58477;48.072;11.970;2022-12-10T03:15:40;0.01;96.93
65207;SHT31;58477;48.072;11.970;2022-12-10T03:18:08;-0.13;97.66
65207;SHT31;58477;48.072;11.970;2022-12-10T03:20:41;-0.17;97.94
65207;SHT31;58477;48.072;11.970;2022-12-10T03:23:10;-0.20;97.93
65207;SHT31;58477;48.072;11.970;2022-12-10T03:25:37;-0.19;98.08
65207;SHT31;58477;48.072;11.970;2022-12-10T03:28:05;-0.16;97.91
65207;SHT31;58477;48.072;11.970;2022-12-10T03:30:32;-0.23;98.22
65207;SHT31;58477;48.072;11.970;2022-12-10T03:32:59;0.00;97.96
65207;SHT31;58477;48.072;11.970;2022-12-10T03:35:25;0.15;97.52
65207;SHT31;58477;48.072;11.970;2022-12-10T03:37:51;0.04;96.94
65207;SHT31;58477;48.072;11.970;2022-12-10T03:40:20;-0.09;97.08
65207;SHT31;58477;48.072;11.970;2022-12-10T03:42:47;0.14;96.88
65207;SHT31;58477;48.072;11.970;2022-12-10T03:45:13;0.11;96.66
65207;SHT31;58477;48.072;11.970;2022-12-10T03:47:40;-0.06;96.89
65207;SHT31;58477;48.072;11.970;2022-12-10T03:50:06;-0.17;97.43
65207;SHT31;58477;48.072;11.970;2022-12-10T03:52:31;0.03;97.25
65207;SHT31;58477;48.072;11.970;2022-12-10T03:54:57;0.10;97.03
65207;SHT31;58477;48.072;11.970;2022-12-10T03:57:22;0.25;96.78
65207;SHT31;58477;48.072;11.970;2022-12-10T03:59:48;0.24;96.42
65207;SHT31;58477;48.072;11.970;2022-12-10T04:02:13;0.17;96.23
65207;SHT31;58477;48.072;11.970;2022-12-10T04:04:39;0.21;96.47
65207;SHT31;58477;48.072;11.970;2022-12-10T04:07:04;0.31;96.21
65207;SHT31;58477;48.072;11.970;2022-12-10T04:09:30;0.29;96.05
65207;SHT31;58477;48.072;11.970;2022-12-10T04:11:57;-0.02;96.69
65207;SHT31;58477;48.072;11.970;2022-12-10T04:14:22;-0.06;96.95
65207;SHT31;58477;48.072;11.970;2022-12-10T04:17:07;-0.27;97.89
65207;SHT31;58477;48.072;11.970;2022-12-10T04:19:32;-0.31;98.09
65207;SHT31;58477;48.072;11.970;2022-12-10T04:21:57;-0.31;98.57
65207;SHT31;58477;48.072;11.970;2022-12-10T04:24:41;-0.34;98.46
65207;SHT31;58477;48.072;11.970;2022-12-10T04:27:28;-0.19;98.39
65207;SHT31;58477;48.072;11.970;2022-12-10T04:29:55;-0.09;97.91
65207;SHT31;58477;48.072;11.970;2022-12-10T04:32:23;0.11;97.64
65207;SHT31;58477;48.072;11.970;2022-12-10T04:34:49;-0.10;96.91
65207;SHT31;58477;48.072;11.970;2022-12-10T04:37:14;-0.07;97.56
65207;SHT31;58477;48.072;11.970;2022-12-10T04:39:40;0.05;97.05
65207;SHT31;58477;48.072;11.970;2022-12-10T04:42:06;0.04;96.89
65207;SHT31;58477;48.072;11.970;2022-12-10T04:44:32;0.24;96.87
65207;SHT31;58477;48.072;11.970;2022-12-10T04:46:58;0.35;96.36
65207;SHT31;58477;48.072;11.970;2022-12-10T04:49:24;0.38;95.69
65207;SHT31;58477;48.072;11.970;2022-12-10T04:51:50;0.40;95.46
65207;SHT31;58477;48.072;11.970;2022-12-10T04:54:16;0.17;96.08
65207;SHT31;58477;48.072;11.970;2022-12-10T04:56:42;0.18;96.33
65207;SHT31;58477;48.072;11.970;2022-12-10T04:59:08;-0.03;96.65
65207;SHT31;58477;48.072;11.970;2022-12-10T05:01:34;-0.13;97.25
65207;SHT31;58477;48.072;11.970;2022-12-10T05:04:01;0.03;97.46
65207;SHT31;58477;48.072;11.970;2022-12-10T05:06:27;0.11;96.75
65207;SHT31;58477;48.072;11.970;2022-12-10T05:08:53;0.13;96.78
65207;SHT31;58477;48.072;11.970;2022-12-10T05:11:21;0.18;96.65
65207;SHT31;58477;48.072;11.970;2022-12-10T05:13:46;0.03;96.84
65207;SHT31;58477;48.072;11.970;2022-12-10T05:16:14;0.01;97.11
65207;SHT31;58477;48.072;11.970;2022-12-10T05:18:40;0.15;96.67
65207;SHT31;58477;48.072;11.970;2022-12-10T05:21:09;-0.03;97.21
65207;SHT31;58477;48.072;11.970;2022-12-10T05:23:36;-0.06;97.39
65207;SHT31;58477;48.072;11.970;2022-12-10T05:28:37;-0.06;97.61
65207;SHT31;58477;48.072;11.970;2022-12-10T05:31:04;-0.16;97.76
65207;SHT31;58477;48.072;11.970;2022-12-10T05:33:30;-0.17;97.96
65207;SHT31;58477;48.072;11.970;2022-12-10T05:36:01;0.00;97.37
65207;SHT31;58477;48.072;11.970;2022-12-10T05:38:28;-0.06;97.46
65207;SHT31;58477;48.072;11.970;2022-12-10T05:40:54;-0.23;98.01
65207;SHT31;58477;48.072;11.970;2022-12-10T05:43:20;-0.33;98.29
65207;SHT31;58477;48.072;11.970;2022-12-10T05:45:46;-0.19;98.32
65207;SHT31;58477;48.072;11.970;2022-12-10T05:48:14;-0.02;98.21
65207;SHT31;58477;48.072;11.970;2022-12-10T05:50:40;-0.19;97.94
65207;SHT31;58477;48.072;11.970;2022-12-10T05:53:06;-0.20;98.08
65207;SHT31;58477;48.072;11.970;2022-12-10T05:55:32;0.00;97.96
65207;SHT31;58477;48.072;11.970;2022-12-10T05:57:59;0.10;97.27
65207;SHT31;58477;48.072;11.970;2022-12-10T06:00:25;0.15;96.72
65207;SHT31;58477;48.072;11.970;2022-12-10T06:02:51;0.14;96.79
65207;SHT31;58477;48.072;11.970;2022-12-10T06:05:16;0.18;96.75
65207;SHT31;58477;48.072;11.970;2022-12-10T06:07:43;0.21;96.37
65207;SHT31;58477;48.072;11.970;2022-12-10T06:10:09;0.05;96.72
65207;SHT31;58477;48.072;11.970;2022-12-10T06:12:35;0.10;96.75
65207;SHT31;58477;48.072;11.970;2022-12-10T06:15:01;0.14;96.24
65207;SHT31;58477;48.072;11.970;2022-12-10T06:17:26;0.19;96.37
65207;SHT31;58477;48.072;11.970;2022-12-10T06:19:52;0.31;95.97
65207;SHT31;58477;48.072;11.970;2022-12-10T06:22:17;0.37;95.61
65207;SHT31;58477;48.072;11.970;2022-12-10T06:24:43;0.11;95.75
65207;SHT31;58477;48.072;11.970;2022-12-10T06:27:08;0.10;96.27
65207;SHT31;58477;48.072;11.970;2022-12-10T06:29:34;0.08;96.39
65207;SHT31;58477;48.072;11.970;2022-12-10T06:31:59;-0.11;96.76
65207;SHT31;58477;48.072;11.970;2022-12-10T06:34:25;0.13;96.96
65207;SHT31;58477;48.072;11.970;2022-12-10T06:36:50;0.08;96.42
65207;SHT31;58477;48.072;11.970;2022-12-10T06:39:16;-0.06;96.99
65207;SHT31;58477;48.072;11.970;2022-12-10T06:41:41;-0.19;97.39
65207;SHT31;58477;48.072;11.970;2022-12-10T06:44:10;-0.07;97.64
65207;SHT31;58477;48.072;11.970;2022-12-10T06:46:36;-0.20;97.78
65207;SHT31;58477;48.072;11.970;2022-12-10T06:49:02;-0.29;98.24
65207;SHT31;58477;48.072;11.970;2022-12-10T06:51:27;-0.27;98.31
65207;SHT31;58477;48.072;11.970;2022-12-10T06:53:53;-0.26;98.36
65207;SHT31;58477;48.072;11.970;2022-12-10T06:56:19;-0.29;98.10
65207;SHT31;58477;48.072;11.970;2022-12-10T06:58:45;-0.29;98.07
65207;SHT31;58477;48.072;11.970;2022-12-10T07:01:13;-0.19;97.96
65207;SHT31;58477;48.072;11.970;2022-12-10T07:03:40;-0.20;97.64
65207;SHT31;58477;48.072;11.970;2022-12-10T07:06:07;-0.13;97.29
65207;SHT31;58477;48.072;11.970;2022-12-10T07:08:34;-0.20;97.23
65207;SHT31;58477;48.072;11.970;2022-12-10T07:11:04;0.01;97.35
65207;SHT31;58477;48.072;11.970;2022-12-10T07:13:30;0.15;96.73
65207;SHT31;58477;48.072;11.970;2022-12-10T07:15:55;0.24;95.80
65207;SHT31;58477;48.072;11.970;2022-12-10T07:18:21;0.19;95.48
65207;SHT31;58477;48.072;11.970;2022-12-10T07:20:46;-0.05;96.01
65207;SHT31;58477;48.072;11.970;2022-12-10T07:23:12;-0.05;96.65
65207;SHT31;58477;48.072;11.970;2022-12-10T07:25:37;0.01;96.39
65207;SHT31;58477;48.072;11.970;2022-12-10T07:28:03;0.17;95.44
65207;SHT31;58477;48.072;11.970;2022-12-10T07:30:28;0.10;95.62
65207;SHT31;58477;48.072;11.970;2022-12-10T07:32:54;-0.09;95.84
65207;SHT31;58477;48.072;11.970;2022-12-10T07:35:19;-0.05;96.09
65207;SHT31;58477;48.072;11.970;2022-12-10T07:37:45;-0.14;96.05
65207;SHT31;58477;48.072;11.970;2022-12-10T07:40:10;0.11;95.49
65207;SHT31;58477;48.072;11.970;2022-12-10T07:42:36;0.25;95.19
65207;SHT31;58477;48.072;11.970;2022-12-10T07:45:02;0.19;94.37
65207;SHT31;58477;48.072;11.970;2022-12-10T07:47:28;0.17;94.88
65207;SHT31;58477;48.072;11.970;2022-12-10T07:49:54;0.34;94.92
65207;SHT31;58477;48.072;11.970;2022-12-10T07:52:19;0.27;94.48
65207;SHT31;58477;48.072;11.970;2022-12-10T07:54:45;0.32;94.85
65207;SHT31;58477;48.072;11.970;2022-12-10T07:57:10;0.34;93.81
65207;SHT31;58477;48.072;11.970;2022-12-10T07:59:36;0.25;94.67
65207;SHT31;58477;48.072;11.970;2022-12-10T08:02:01;0.27;94.64
65207;SHT31;58477;48.072;11.970;2022-12-10T08:04:28;0.35;94.15
65207;SHT31;58477;48.072;11.970;2022-12-10T08:06:55;0.38;93.94
65207;SHT31;58477;48.072;11.970;2022-12-10T08:09:20;0.27;94.59
65207;SHT31;58477;48.072;11.970;2022-12-10T08:11:46;0.48;94.23
65207;SHT31;58477;48.072;11.970;2022-12-10T08:14:11;0.65;93.38
65207;SHT31;58477;48.072;11.970;2022-12-10T08:16:37;0.49;93.11
65207;SHT31;58477;48.072;11.970;2022-12-10T08:19:03;0.17;94.47
65207;SHT31;58477;48.072;11.970;2022-12-10T08:21:30;0.22;95.46
65207;SHT31;58477;48.072;11.970;2022-12-10T08:23:56;0.45;94.44
65207;SHT31;58477;48.072;11.970;2022-12-10T08:26:24;0.55;93.97
65207;SHT31;58477;48.072;11.970;2022-12-10T08:28:50;0.75;92.93
65207;SHT31;58477;48.072;11.970;2022-12-10T08:31:18;0.89;92.56
65207;SHT31;58477;48.072;11.970;2022-12-10T08:33:44;1.03;92.37
65207;SHT31;58477;48.072;11.970;2022-12-10T08:36:14;0.95;92.16
65207;SHT31;58477;48.072;11.970;2022-12-10T08:38:40;0.78;91.63
65207;SHT31;58477;48.072;11.970;2022-12-10T08:41:18;0.72;92.22
65207;SHT31;58477;48.072;11.970;2022-12-10T08:43:44;0.68;92.82
65207;SHT31;58477;48.072;11.970;2022-12-10T08:46:12;0.69;92.46
65207;SHT31;58477;48.072;11.970;2022-12-10T08:48:38;0.55;93.24
65207;SHT31;58477;48.072;11.970;2022-12-10T08:51:05;0.48;93.95
65207;SHT31;58477;48.072;11.970;2022-12-10T08:53:31;0.55;93.02
65207;SHT31;58477;48.072;11.970;2022-12-10T08:55:56;0.45;93.62
65207;SHT31;58477;48.072;11.970;2022-12-10T08:58:22;0.35;94.36
65207;SHT31;58477;48.072;11.970;2022-12-10T09:00:48;0.40;94.20
65207;SHT31;58477;48.072;11.970;2022-12-10T09:03:14;0.38;94.38
65207;SHT31;58477;48.072;11.970;2022-12-10T09:05:41;0.35;94.26
65207;SHT31;58477;48.072;11.970;2022-12-10T09:08:06;0.44;94.27
65207;SHT31;58477;48.072;11.970;2022-12-10T09:10:32;0.66;93.78
65207;SHT31;58477;48.072;11.970;2022-12-10T09:12:57;0.99;92.80
65207;SHT31;58477;48.072;11.970;2022-12-10T09:15:23;1.06;91.37
65207;SHT31;58477;48.072;11.970;2022-12-10T09:17:48;0.90;91.90
65207;SHT31;58477;48.072;11.970;2022-12-10T09:20:14;0.88;92.05
65207;SHT31;58477;48.072;11.970;2022-12-10T09:22:40;0.86;92.90
65207;SHT31;58477;48.072;11.970;2022-12-10T09:25:07;0.80;92.39
65207;SHT31;58477;48.072;11.970;2022-12-10T09:27:36;1.00;92.30
65207;SHT31;58477;48.072;11.970;2022-12-10T09:30:04;1.00;92.29
65207;SHT31;58477;48.072;11.970;2022-12-10T09:32:29;0.89;92.69
65207;SHT31;58477;48.072;11.970;2022-12-10T09:34:54;0.83;92.85
65207;SHT31;58477;48.072;11.970;2022-12-10T09:37:20;0.92;92.32
65207;SHT31;58477;48.072;11.970;2022-12-10T09:39:46;1.03;92.08
65207;SHT31;58477;48.072;11.970;2022-12-10T09:47:17;0.95;92.56
65207;SHT31;58477;48.072;11.970;2022-12-10T09:52:23;0.51;93.31
65207;SHT31;58477;48.072;11.970;2022-12-10T09:54:50;0.55;93.96
65207;SHT31;58477;48.072;11.970;2022-12-10T09:57:44;0.61;94.18
65207;SHT31;58477;48.072;11.970;2022-12-10T10:02:42;0.59;93.89
65207;SHT31;58477;48.072;11.970;2022-12-10T10:07:36;0.95;93.10
65207;SHT31;58477;48.072;11.970;2022-12-10T10:10:09;1.17;92.91
65207;SHT31;58477;48.072;11.970;2022-12-10T10:12:37;0.99;92.52
65207;SHT31;58477;48.072;11.970;2022-12-10T10:15:16;0.92;92.83
65207;SHT31;58477;48.072;11.970;2022-12-10T10:17:44;1.12;92.41
65207;SHT31;58477;48.072;11.970;2022-12-10T10:20:13;1.15;91.97
65207;SHT31;58477;48.072;11.970;2022-12-10T10:22:41;1.37;91.00
65207;SHT31;58477;48.072;11.970;2022-12-10T10:25:15;1.09;91.82
65207;SHT31;58477;48.072;11.970;2022-12-10T10:27:41;0.86;92.52
65207;SHT31;58477;48.072;11.970;2022-12-10T10:30:12;0.86;92.99
65207;SHT31;58477;48.072;11.970;2022-12-10T10:35:05;0.99;92.34
65207;SHT31;58477;48.072;11.970;2022-12-10T10:39:59;1.17;91.59
65207;SHT31;58477;48.072;11.970;2022-12-10T10:42:35;1.20;91.54
65207;SHT31;58477;48.072;11.970;2022-12-10T10:45:03;0.85;93.40
65207;SHT31;58477;48.072;11.970;2022-12-10T10:47:34;0.86;93.45
65207;SHT31;58477;48.072;11.970;2022-12-10T10:50:04;0.76;93.60
65207;SHT31;58477;48.072;11.970;2022-12-10T10:52:35;0.93;92.86
65207;SHT31;58477;48.072;11.970;2022-12-10T10:55:02;0.76;93.81
65207;SHT31;58477;48.072;11.970;2022-12-10T10:57:35;1.02;93.34
65207;SHT31;58477;48.072;11.970;2022-12-10T11:00:22;1.02;93.05
65207;SHT31;58477;48.072;11.970;2022-12-10T11:02:50;1.00;93.01
65207;SHT31;58477;48.072;11.970;2022-12-10T11:05:23;1.04;93.49
65207;SHT31;58477;48.072;11.970;2022-12-10T11:08:02;0.88;92.85
65207;SHT31;58477;48.072;11.970;2022-12-10T11:10:28;0.97;92.94
65207;SHT31;58477;48.072;11.970;2022-12-10T11:13:19;0.99;93.08
65207;SHT31;58477;48.072;11.970;2022-12-10T11:15:45;1.02;93.23
65207;SHT31;58477;48.072;11.970;2022-12-10T11:23:37;1.22;92.03
65207;SHT31;58477;48.072;11.970;2022-12-10T11:26:13;1.26;91.92
65207;SHT31;58477;48.072;11.970;2022-12-10T11:34:26;1.15;92.14
65207;SHT31;58477;48.072;11.970;2022-12-10T11:40:15;1.17;91.52
65207;SHT31;58477;48.072;11.970;2022-12-10T11:51:35;1.22;91.28
65207;SHT31;58477;48.072;11.970;2022-12-10T11:54:40;1.19;90.89
65207;SHT31;58477;48.072;11.970;2022-12-10T11:57:19;1.20;91.51
65207;SHT31;58477;48.072;11.970;2022-12-10T12:00:01;1.26;91.52
65207;SHT31;58477;48.072;11.970;2022-12-10T12:02:38;1.32;91.32
65207;SHT31;58477;48.072;11.970;2022-12-10T12:07:53;1.29;91.01
65207;SHT31;58477;48.072;11.970;2022-12-10T12:13:17;1.22;91.29
65207;SHT31;58477;48.072;11.970;2022-12-10T12:18:39;1.33;90.59
65207;SHT31;58477;48.072;11.970;2022-12-10T12:21:11;1.32;91.19
65207;SHT31;58477;48.072;11.970;2022-12-10T12:23:43;1.51;91.19
65207;SHT31;58477;48.072;11.970;2022-12-10T12:26:15;1.37;91.31
65207;SHT31;58477;48.072;11.970;2022-12-10T12:28:43;1.26;90.93
65207;SHT31;58477;48.072;11.970;2022-12-10T12:31:16;1.19;91.12
65207;SHT31;58477;48.072;11.970;2022-12-10T12:33:49;1.17;91.25
65207;SHT31;58477;48.072;11.970;2022-12-10T12:36:23;1.15;91.01
65207;SHT31;58477;48.072;11.970;2022-12-10T12:42:03;1.22;91.68
65207;SHT31;58477;48.072;11.970;2022-12-10T12:47:34;1.23;92.05
65207;SHT31;58477;48.072;11.970;2022-12-10T12:50:03;1.13;91.97
65207;SHT31;58477;48.072;11.970;2022-12-10T12:52:36;1.32;91.79
65207;SHT31;58477;48.072;11.970;2022-12-10T12:55:14;1.32;91.55
65207;SHT31;58477;48.072;11.970;2022-12-10T12:57:46;1.22;91.25
65207;SHT31;58477;48.072;11.970;2022-12-10T13:00:19;1.34;91.66
65207;SHT31;58477;48.072;11.970;2022-12-10T13:05:32;1.37;91.64
65207;SHT31;58477;48.072;11.970;2022-12-10T13:13:38;1.48;91.57
65207;SHT31;58477;48.072;11.970;2022-12-10T13:21:57;1.47;91.48
65207;SHT31;58477;48.072;11.970;2022-12-10T13:24:43;1.42;91.90
65207;SHT31;58477;48.072;11.970;2022-12-10T13:29:58;1.16;92.96
65207;SHT31;58477;48.072;11.970;2022-12-10T13:32:42;1.17;92.82
65207;SHT31;58477;48.072;11.970;2022-12-10T13:40:40;1.22;92.93
65207;SHT31;58477;48.072;11.970;2022-12-10T13:46:51;0.90;92.47
65207;SHT31;58477;48.072;11.970;2022-12-10T13:49:22;0.69;93.15
65207;SHT31;58477;48.072;11.970;2022-12-10T13:51:52;0.88;93.55
65207;SHT31;58477;48.072;11.970;2022-12-10T13:54:42;0.93;93.30
65207;SHT31;58477;48.072;11.970;2022-12-10T14:00:08;0.95;93.19
65207;SHT31;58477;48.072;11.970;2022-12-10T14:05:50;0.83;93.37
65207;SHT31;58477;48.072;11.970;2022-12-10T14:08:21;0.93;93.70
65207;SHT31;58477;48.072;11.970;2022-12-10T14:10:49;0.97;93.25
65207;SHT31;58477;48.072;11.970;2022-12-10T14:13:18;0.93;93.37
65207;SHT31;58477;48.072;11.970;2022-12-10T14:15:54;0.95;93.43
65207;SHT31;58477;48.072;11.970;2022-12-10T14:18:21;0.86;93.38
65207;SHT31;58477;48.072;11.970;2022-12-10T14:20:50;0.86;93.88
65207;SHT31;58477;48.072;11.970;2022-12-10T14:26:20;0.78;94.07
65207;SHT31;58477;48.072;11.970;2022-12-10T14:28:48;0.80;93.98
65207;SHT31;58477;48.072;11.970;2022-12-10T14:31:44;0.75;93.87
65207;SHT31;58477;48.072;11.970;2022-12-10T14:34:16;0.70;94.23
65207;SHT31;58477;48.072;11.970;2022-12-10T14:36:50;0.73;94.07
65207;SHT31;58477;48.072;11.970;2022-12-10T14:39:22;0.69;94.34
65207;SHT31;58477;48.072;11.970;2022-12-10T14:41:51;0.73;94.42
65207;SHT31;58477;48.072;11.970;2022-12-10T14:44:18;0.61;94.47
65207;SHT31;58477;48.072;11.970;2022-12-10T14:46:47;0.57;94.72
65207;SHT31;58477;48.072;11.970;2022-12-10T14:49:20;0.51;94.95
65207;SHT31;58477;48.072;11.970;2022-12-10T14:51:47;0.57;95.09
65207;SHT31;58477;48.072;11.970;2022-12-10T14:54:42;0.40;94.71
65207;SHT31;58477;48.072;11.970;2022-12-10T14:57:12;0.54;94.63
65207;SHT31;58477;48.072;11.970;2022-12-10T15:00:05;0.49;94.78
65207;SHT31;58477;48.072;11.970;2022-12-10T15:02:40;0.44;94.82
65207;SHT31;58477;48.072;11.970;2022-12-10T15:05:16;0.52;94.92
65207;SHT31;58477;48.072;11.970;2022-12-10T15:07:54;0.48;94.71
65207;SHT31;58477;48.072;11.970;2022-12-10T15:10:26;0.57;94.77
65207;SHT31;58477;48.072;11.970;2022-12-10T15:12:53;0.51;94.65
65207;SHT31;58477;48.072;11.970;2022-12-10T15:15:30;0.37;94.60
65207;SHT31;58477;48.072;11.970;2022-12-10T15:20:38;0.47;94.87
65207;SHT31;58477;48.072;11.970;2022-12-10T15:23:33;0.22;94.92
65207;SHT31;58477;48.072;11.970;2022-12-10T15:28:44;0.41;95.19
65207;SHT31;58477;48.072;11.970;2022-12-10T15:34:05;0.40;95.25
65207;SHT31;58477;48.072;11.970;2022-12-10T15:36:43;0.38;95.32
65207;SHT31;58477;48.072;11.970;2022-12-10T15:39:20;0.35;95.43
65207;SHT31;58477;48.072;11.970;2022-12-10T15:41:54;0.25;95.21
65207;SHT31;58477;48.072;11.970;2022-12-10T15:44:32;0.28;95.61
65207;SHT31;58477;48.072;11.970;2022-12-10T15:47:23;0.25;95.14
65207;SHT31;58477;48.072;11.970;2022-12-10T15:49:51;0.29;94.90
65207;SHT31;58477;48.072;11.970;2022-12-10T15:52:20;0.18;94.75
65207;SHT31;58477;48.072;11.970;2022-12-10T15:54:48;0.17;95.00
65207;SHT31;58477;48.072;11.970;2022-12-10T15:57:17;0.13;94.84
65207;SHT31;58477;48.072;11.970;2022-12-10T15:59:48;0.04;94.67
65207;SHT31;58477;48.072;11.970;2022-12-10T16:05:02;0.14;94.25
65207;SHT31;58477;48.072;11.970;2022-12-10T16:07:28;0.10;94.69
65207;SHT31;58477;48.072;11.970;2022-12-10T16:09:53;0.11;94.86
65207;SHT31;58477;48.072;11.970;2022-12-10T16:12:19;0.05;94.49
65207;SHT31;58477;48.072;11.970;2022-12-10T16:14:53;-0.03;94.57
65207;SHT31;58477;48.072;11.970;2022-12-10T16:17:21;-0.06;94.49
65207;SHT31;58477;48.072;11.970;2022-12-10T16:19:47;-0.05;94.56
65207;SHT31;58477;48.072;11.970;2022-12-10T16:22:13;-0.09;94.42
65207;SHT31;58477;48.072;11.970;2022-12-10T16:24:38;-0.07;94.75
65207;SHT31;58477;48.072;11.970;2022-12-10T16:27:14;-0.03;94.38
65207;SHT31;58477;48.072;11.970;2022-12-10T16:29:41;-0.10;94.64
65207;SHT31;58477;48.072;11.970;2022-12-10T16:32:09;-0.10;94.65
65207;SHT31;58477;48.072;11.970;2022-12-10T16:34:35;-0.11;93.85
65207;SHT31;58477;48.072;11.970;2022-12-10T16:37:00;-0.14;93.86
65207;SHT31;58477;48.072;11.970;2022-12-10T16:39:26;-0.09;93.94
65207;SHT31;58477;48.072;11.970;2022-12-10T16:41:54;-0.09;94.24
65207;SHT31;58477;48.072;11.970;2022-12-10T16:44:20;-0.03;94.45
65207;SHT31;58477;48.072;11.970;2022-12-10T16:46:46;-0.07;94.40
65207;SHT31;58477;48.072;11.970;2022-12-10T16:49:12;-0.03;94.81
65207;SHT31;58477;48.072;11.970;2022-12-10T16:51:38;0.05;94.56
65207;SHT31;58477;48.072;11.970;2022-12-10T16:54:03;0.04;94.74
65207;SHT31;58477;48.072;11.970;2022-12-10T16:56:29;-0.02;94.67
65207;SHT31;58477;48.072;11.970;2022-12-10T16:58:55;-0.09;94.17
65207;SHT31;58477;48.072;11.970;2022-12-10T17:01:24;-0.06;94.62
65207;SHT31;58477;48.072;11.970;2022-12-10T17:03:50;-0.06;94.52
65207;SHT31;58477;48.072;11.970;2022-12-10T17:06:18;-0.09;94.85
65207;SHT31;58477;48.072;11.970;2022-12-10T17:08:44;0.04;94.67
65207;SHT31;58477;48.072;11.970;2022-12-10T17:11:25;0.00;94.64
65207;SHT31;58477;48.072;11.970;2022-12-10T17:16:48;-0.14;94.65
65207;SHT31;58477;48.072;11.970;2022-12-10T17:19:14;-0.13;94.98
65207;SHT31;58477;48.072;11.970;2022-12-10T17:21:39;-0.17;94.83
65207;SHT31;58477;48.072;11.970;2022-12-10T17:24:05;-0.14;94.86
65207;SHT31;58477;48.072;11.970;2022-12-10T17:26:34;-0.26;94.83
65207;SHT31;58477;48.072;11.970;2022-12-10T17:29:10;-0.17;94.85
65207;SHT31;58477;48.072;11.970;2022-12-10T17:31:37;-0.11;94.61
65207;SHT31;58477;48.072;11.970;2022-12-10T17:34:05;-0.11;94.61
65207;SHT31;58477;48.072;11.970;2022-12-10T17:36:31;-0.14;94.87
65207;SHT31;58477;48.072;11.970;2022-12-10T17:38:57;-0.27;94.16
65207;SHT31;58477;48.072;11.970;2022-12-10T17:41:22;-0.38;94.31
65207;SHT31;58477;48.072;11.970;2022-12-10T17:43:48;-0.37;95.00
65207;SHT31;58477;48.072;11.970;2022-12-10T17:46:16;-0.34;94.66
65207;SHT31;58477;48.072;11.970;2022-12-10T17:48:42;-0.26;95.02
65207;SHT31;58477;48.072;11.970;2022-12-10T17:51:11;-0.34;94.69